EKVGEGPC

Guest
Details From EKVG - Vagar
To EGPC - Wick
Flight Number -
Tags Standard
Created
Modified
Stats Distance 281 nm / 521 km
Max Altitude 26,000 ft / 7,925 m
Waypoints 7
Social Downloads 0
Likes 0
Share VATSIM

Download

Looking for another format? Having issues loading an existing format? Contact us
Advertisement - Login to hide

Notes

None

Route

+62.066_-007.287 EKVG MY GONUT BAMRA SOXON EGPC

ID Type Via Altitude Latitude Longitude Leg Dist Tot Dist Heading (true) Name
O +62.066_-007.287 LATLON - 0 ft / 0 m 62.06616˚ -7.28742˚ - 0 nm - -
EKVG APT - 207 ft / 63 m 62.06358˚ -7.27704˚ 0 nm 0 nm 118° / 118° Vagar
MY NDB - 4,500 ft / 1,372 m 62.10695˚ -7.58778˚ 9 nm 9 nm 287° / 286° MYGGENES NDB
GONUT FIX - 26,000 ft / 7,925 m 61.00000˚ -4.58333˚ 108 nm 118 nm 126° / 129° -
BAMRA FIX - 26,000 ft / 7,925 m 59.43333˚ -3.95278˚ 95 nm 214 nm 168° / 169° -
SOXON FIX - 26,000 ft / 7,925 m 58.96833˚ -3.87278˚ 28 nm 242 nm 175° / 175° -
O EGPC APT - 126 ft / 38 m 58.45875˚ -3.09295˚ 39 nm 281 nm 141° / 142° Wick

Altitude Profile

Advertisement - Login to hide

Weather


0- 5 10 15 20 25 30 35+ Temperature / ° C

Clouds and Precipitation
Forecast for 2017-12-17 12:00 UTC. Updated an hour ago

Ground ~20,000 ft ~40,000 ft Winds

EKVG

Details ICAO EKVG (FAE)
Name Vagar
Region Denmark / Faroe Islands
Timezone Atlantic/Faroe (UTC+0.0)
Stats Elevation 280 ft / 85 m (AMSL)
Location 62.063584° -7.277044°
Runways 1
Magnetic Variation 5.382° W

METAR

EKVG 170820Z AUTO 30018KT 260V330 9999NDV BKN027/// 06/02 Q0997 RMK BKN024/// WIND 850FT 31038G49KT

Decode

TAF

Not found

Departure Runways

ID Width Length Bearing (true) Bearing (mag) Surface Threshold Offset Overrun Length
13 98 ft / 30 m 4,088 ft / 1,246 m 117.92° 123.30° Asphalt 0 ft / 0 m 197 ft / 60 m
31 98 ft / 30 m 4,088 ft / 1,246 m 297.94° 303.32° Asphalt 0 ft / 0 m 197 ft / 60 m

EGPC

Details ICAO EGPC (WIC)
Name Wick
Region United Kingdom
Timezone Europe/London (UTC+0.0)
Stats Elevation 126 ft / 38 m (AMSL)
Location 58.457866° -3.092981°
Runways 2
Magnetic Variation 2.627° W

METAR

EGPC 170820Z AUTO 20013KT 8000 -RA SCT030/// BKN039/// 06/05 Q1005 RERA

Decode

TAF

Not found

Destination Runways

ID Width Length Bearing (true) Bearing (mag) Surface Threshold Offset Overrun Length
08 148 ft / 45 m 3,390 ft / 1,033 m 75.45° 78.08° Asphalt 0 ft / 0 m 0 ft / 0 m
13 148 ft / 45 m 5,978 ft / 1,822 m 127.02° 129.65° Asphalt 814 ft / 248 m 0 ft / 0 m
26 148 ft / 45 m 3,390 ft / 1,033 m 255.46° 258.09° Asphalt 0 ft / 0 m 0 ft / 0 m
31 148 ft / 45 m 5,978 ft / 1,822 m 307.04° 309.67° Asphalt 1,010 ft / 308 m 0 ft / 0 m

Popular Alternatives